Time;durP1;ratioP1;P1;durP2;ratioP2;P2;SDS_P1;SDS_P2;PMS_P1;PMS_P2;Temp;Humidity;BMP_temperature;BMP_pressure;BME280_temperature;BME280_humidity;BME280_pressure;Samples;Min_cycle;Max_cycle;Signal;HPM_P1;HPM_P2
2023/11/18 00:00:12;;;;;;;7.20;5.20;;;;;;;;;;2089942;28;20057;-56
2023/11/18 00:01:13;;;;;;;6.82;4.30;;;;;;;;;;2091130;28;20060;-55
2023/11/18 00:02:13;;;;;;;5.85;3.58;;;;;;;;;;2090598;28;20409;-55
2023/11/18 00:03:14;;;;;;;7.18;4.70;;;;;;;;;;2090271;28;20170;-55
2023/11/18 00:04:18;;;;;;;7.57;4.00;;;;;;;;;;2091323;28;20044;-55
2023/11/18 00:05:18;;;;;;;6.43;4.32;;;;;;;;;;2090761;28;20056;-55
2023/11/18 00:06:19;;;;;;;6.63;4.15;;;;;;;;;;2090399;28;20048;-55
2023/11/18 00:07:20;;;;;;;8.70;4.90;;;;;;;;;;2090949;28;20036;-55
2023/11/18 00:08:24;;;;;;;7.00;4.15;;;;;;;;;;2090523;28;20419;-55
2023/11/18 00:09:25;;;;;;;6.45;4.60;;;;;;;;;;2090261;28;20052;-55
2023/11/18 00:10:26;;;;;;;7.22;4.65;;;;;;;;;;2090497;28;20202;-55
2023/11/18 00:11:27;;;;;;;6.97;4.70;;;;;;;;;;2090787;28;20025;-55
2023/11/18 00:12:27;;;;;;;7.28;5.38;;;;;;;;;;2090935;28;20037;-56
2023/11/18 00:13:28;;;;;;;7.32;4.63;;;;;;;;;;2090505;28;20035;-56
2023/11/18 00:14:29;;;;;;;7.25;4.40;;;;;;;;;;2090483;28;20504;-55
2023/11/18 00:15:30;;;;;;;6.45;3.78;;;;;;;;;;2090474;28;20045;-55
2023/11/18 00:16:31;;;;;;;6.40;4.00;;;;;;;;;;2090451;28;20048;-56
2023/11/18 00:17:32;;;;;;;8.43;4.68;;;;;;;;;;2090646;28;20029;-56
2023/11/18 00:18:32;;;;;;;6.80;4.50;;;;;;;;;;2090445;28;20044;-55
2023/11/18 00:19:36;;;;;;;6.38;4.13;;;;;;;;;;2090728;28;20036;-55
2023/11/18 00:20:37;;;;;;;8.15;4.53;;;;;;;;;;2090685;28;20033;-55
2023/11/18 00:21:37;;;;;;;6.63;4.32;;;;;;;;;;2090353;28;20021;-55
2023/11/18 00:22:39;;;;;;;7.03;4.65;;;;;;;;;;2090371;28;20029;-56
2023/11/18 00:23:40;;;;;;;5.90;4.40;;;;;;;;;;2090448;28;20045;-55
2023/11/18 00:24:40;;;;;;;6.35;4.57;;;;;;;;;;2090725;28;20032;-56
2023/11/18 00:25:41;;;;;;;6.43;4.57;;;;;;;;;;2090604;28;20384;-55
2023/11/18 00:26:42;;;;;;;6.95;4.63;;;;;;;;;;2090608;28;20028;-55
2023/11/18 00:27:43;;;;;;;7.30;4.03;;;;;;;;;;2090383;28;20103;-55
2023/11/18 00:28:43;;;;;;;6.03;3.47;;;;;;;;;;2090428;28;20492;-55
2023/11/18 00:29:44;;;;;;;5.97;4.07;;;;;;;;;;2090679;28;20021;-55
2023/11/18 00:30:45;;;;;;;7.60;4.70;;;;;;;;;;2089912;28;20102;-55
2023/11/18 00:31:46;;;;;;;6.45;4.30;;;;;;;;;;2090355;28;20098;-55
2023/11/18 00:32:47;;;;;;;7.20;4.70;;;;;;;;;;2090331;28;20040;-55
2023/11/18 00:33:48;;;;;;;7.85;4.63;;;;;;;;;;2090290;28;20045;-55
2023/11/18 00:34:49;;;;;;;6.40;4.10;;;;;;;;;;2090351;28;20017;-55
2023/11/18 00:35:49;;;;;;;5.40;3.15;;;;;;;;;;2090327;28;20036;-56
2023/11/18 00:36:51;;;;;;;7.03;4.57;;;;;;;;;;2090319;28;20032;-55
2023/11/18 00:37:52;;;;;;;7.93;5.25;;;;;;;;;;2090532;28;20040;-55
2023/11/18 00:38:53;;;;;;;6.85;4.47;;;;;;;;;;2090311;28;20503;-55
2023/11/18 00:39:53;;;;;;;7.10;4.68;;;;;;;;;;2090317;28;20048;-55
2023/11/18 00:40:54;;;;;;;6.63;4.38;;;;;;;;;;2089499;28;20037;-55
2023/11/18 00:41:58;;;;;;;7.68;4.57;;;;;;;;;;2081120;28;20033;-55
2023/11/18 00:42:58;;;;;;;7.32;4.38;;;;;;;;;;2089314;28;20032;-55
2023/11/18 00:43:59;;;;;;;7.07;4.90;;;;;;;;;;2089552;28;20082;-55
2023/11/18 00:45:00;;;;;;;6.53;4.07;;;;;;;;;;2090742;28;20049;-56
2023/11/18 00:46:03;;;;;;;6.53;4.07;;;;;;;;;;2089914;28;20037;-55
2023/11/18 00:47:03;;;;;;;6.85;4.57;;;;;;;;;;2081651;28;20044;-55
2023/11/18 00:48:05;;;;;;;6.70;4.70;;;;;;;;;;2089709;28;20067;-55
2023/11/18 00:49:05;;;;;;;7.65;4.97;;;;;;;;;;2090417;28;20033;-55
2023/11/18 00:50:08;;;;;;;7.38;4.70;;;;;;;;;;2090262;28;20033;-55
2023/11/18 00:51:09;;;;;;;7.07;5.03;;;;;;;;;;2089612;28;20495;-55
2023/11/18 00:52:10;;;;;;;7.78;4.85;;;;;;;;;;2089845;28;20028;-55
2023/11/18 00:53:11;;;;;;;6.38;4.07;;;;;;;;;;2090204;28;20028;-55
2023/11/18 00:54:12;;;;;;;7.93;3.70;;;;;;;;;;2090543;28;20060;-55
2023/11/18 00:55:13;;;;;;;7.43;4.28;;;;;;;;;;2089615;28;20032;-55
2023/11/18 00:56:17;;;;;;;7.28;4.70;;;;;;;;;;2090185;28;20060;-55
2023/11/18 00:57:18;;;;;;;6.72;4.43;;;;;;;;;;2090513;28;20048;-55
2023/11/18 00:58:20;;;;;;;7.70;4.90;;;;;;;;;;2089346;28;20473;-55
2023/11/18 00:59:20;;;;;;;5.88;3.60;;;;;;;;;;2081735;28;20052;-55
2023/11/18 01:00:26;;;;;;;7.38;5.10;;;;;;;;;;2089894;28;20075;-55
2023/11/18 01:01:27;;;;;;;7.88;5.32;;;;;;;;;;2090440;28;20033;-55
2023/11/18 01:02:28;;;;;;;8.52;5.25;;;;;;;;;;2090057;28;20505;-55
2023/11/18 01:03:30;;;;;;;7.88;5.13;;;;;;;;;;2089600;28;20037;-55
2023/11/18 01:04:33;;;;;;;7.35;4.72;;;;;;;;;;2090230;28;20045;-55
2023/11/18 01:05:34;;;;;;;7.65;4.78;;;;;;;;;;2090045;28;20045;-55
2023/11/18 01:06:35;;;;;;;7.95;4.97;;;;;;;;;;2090756;28;20052;-55
2023/11/18 01:07:36;;;;;;;7.07;4.57;;;;;;;;;;2090084;28;20446;-55
2023/11/18 01:08:36;;;;;;;7.47;5.15;;;;;;;;;;2089286;28;20542;-55
2023/11/18 01:09:38;;;;;;;7.30;5.00;;;;;;;;;;2090152;28;20044;-55
2023/11/18 01:10:39;;;;;;;8.02;5.20;;;;;;;;;;2090369;28;20575;-55
2023/11/18 01:11:40;;;;;;;7.60;4.95;;;;;;;;;;2090193;28;20057;-55
2023/11/18 01:12:40;;;;;;;6.35;4.25;;;;;;;;;;2090473;28;20048;-55
2023/11/18 01:13:41;;;;;;;8.00;4.78;;;;;;;;;;2090035;28;20408;-55
2023/11/18 01:14:42;;;;;;;6.60;4.43;;;;;;;;;;2089899;28;20041;-54
2023/11/18 01:15:43;;;;;;;8.15;4.10;;;;;;;;;;2090289;28;20111;-55
2023/11/18 01:16:44;;;;;;;9.48;4.88;;;;;;;;;;2090417;28;20083;-55
2023/11/18 01:17:44;;;;;;;7.97;5.10;;;;;;;;;;2090184;28;20386;-55
2023/11/18 01:18:45;;;;;;;7.32;4.95;;;;;;;;;;2090469;28;20049;-55
2023/11/18 01:19:46;;;;;;;8.18;5.00;;;;;;;;;;2090285;28;20032;-55
2023/11/18 01:20:47;;;;;;;6.90;4.93;;;;;;;;;;2090160;28;20037;-55
2023/11/18 01:21:47;;;;;;;7.40;4.25;;;;;;;;;;2090136;28;20045;-55
2023/11/18 01:22:49;;;;;;;7.57;5.20;;;;;;;;;;2090066;28;20037;-55
2023/11/18 01:23:50;;;;;;;8.10;4.63;;;;;;;;;;2089729;28;20037;-55
2023/11/18 01:24:51;;;;;;;7.40;5.30;;;;;;;;;;2089405;28;20425;-55
2023/11/18 01:25:51;;;;;;;7.82;5.35;;;;;;;;;;2090407;28;20052;-55
2023/11/18 01:26:52;;;;;;;8.63;5.30;;;;;;;;;;2090074;28;20102;-55
2023/11/18 01:27:53;;;;;;;8.35;5.60;;;;;;;;;;2090062;28;20240;-55
2023/11/18 01:28:55;;;;;;;6.43;4.55;;;;;;;;;;2090114;28;20044;-55
2023/11/18 01:29:56;;;;;;;8.10;4.93;;;;;;;;;;2089908;28;20041;-55
2023/11/18 01:30:56;;;;;;;8.85;5.10;;;;;;;;;;2090198;28;20466;-55
2023/11/18 01:31:58;;;;;;;6.30;4.68;;;;;;;;;;2090086;28;20044;-55
2023/11/18 01:33:02;;;;;;;7.30;4.63;;;;;;;;;;2088827;28;20041;-55
2023/11/18 01:34:04;;;;;;;8.07;5.03;;;;;;;;;;2089014;28;20048;-55
2023/11/18 01:35:05;;;;;;;6.82;4.70;;;;;;;;;;2090332;28;20040;-55
2023/11/18 01:36:08;;;;;;;8.25;4.60;;;;;;;;;;2090235;28;20040;-55
2023/11/18 01:37:09;;;;;;;6.07;4.30;;;;;;;;;;2089617;28;20037;-54
2023/11/18 01:38:11;;;;;;;5.97;4.13;;;;;;;;;;2089706;28;20436;-55
2023/11/18 01:39:13;;;;;;;7.25;4.65;;;;;;;;;;2090029;28;20052;-55
2023/11/18 01:40:15;;;;;;;8.35;4.20;;;;;;;;;;2090044;28;20029;-55
2023/11/18 01:41:16;;;;;;;8.20;4.85;;;;;;;;;;2090020;28;20397;-55
2023/11/18 01:42:16;;;;;;;8.30;4.50;;;;;;;;;;2090022;28;20056;-55
2023/11/18 01:43:18;;;;;;;7.32;5.38;;;;;;;;;;2091156;28;20037;-55
2023/11/18 01:44:19;;;;;;;6.85;5.00;;;;;;;;;;2091659;28;20408;-55
2023/11/18 01:45:20;;;;;;;6.55;4.65;;;;;;;;;;2091659;28;20041;-55
2023/11/18 01:46:23;;;;;;;6.70;4.25;;;;;;;;;;2091668;28;20473;-54
2023/11/18 01:47:24;;;;;;;6.07;4.25;;;;;;;;;;2082626;28;20211;-55
2023/11/18 01:48:26;;;;;;;6.57;4.28;;;;;;;;;;2075135;28;20490;-55
2023/11/18 01:49:27;;;;;;;7.00;4.35;;;;;;;;;;2082890;28;20045;-55
2023/11/18 01:50:28;;;;;;;7.32;4.93;;;;;;;;;;2090775;28;20048;-55
2023/11/18 01:51:29;;;;;;;5.57;4.18;;;;;;;;;;2083007;28;20512;-55
2023/11/18 01:52:30;;;;;;;9.27;5.13;;;;;;;;;;2074871;28;20461;-55
2023/11/18 01:53:30;;;;;;;8.32;4.57;;;;;;;;;;2090713;28;20132;-54
2023/11/18 01:54:32;;;;;;;6.53;4.57;;;;;;;;;;2091891;28;20056;-55
2023/11/18 01:55:34;;;;;;;7.38;4.40;;;;;;;;;;2091588;28;20077;-55
2023/11/18 01:56:35;;;;;;;6.03;4.38;;;;;;;;;;2091772;28;20380;-55
2023/11/18 01:57:36;;;;;;;6.13;4.47;;;;;;;;;;2091216;28;20044;-55
2023/11/18 01:58:37;;;;;;;7.20;4.50;;;;;;;;;;2091001;28;20032;-55
2023/11/18 01:59:38;;;;;;;6.03;3.88;;;;;;;;;;2091275;28;20056;-55
2023/11/18 02:00:39;;;;;;;5.78;3.78;;;;;;;;;;2074216;28;20058;-55
2023/11/18 02:01:43;;;;;;;6.85;4.30;;;;;;;;;;2074625;28;20046;-55
2023/11/18 02:02:43;;;;;;;7.32;4.07;;;;;;;;;;2082382;28;20157;-55
2023/11/18 02:03:44;;;;;;;6.13;4.55;;;;;;;;;;2090620;28;20059;-54
2023/11/18 02:04:45;;;;;;;5.57;3.80;;;;;;;;;;2090322;28;20049;-54
2023/11/18 02:05:46;;;;;;;6.70;4.50;;;;;;;;;;2091107;28;20059;-55
2023/11/18 02:06:49;;;;;;;6.00;4.20;;;;;;;;;;2090872;28;20427;-54
2023/11/18 02:07:50;;;;;;;8.23;4.97;;;;;;;;;;2090484;28;20055;-55
2023/11/18 02:08:51;;;;;;;9.57;5.63;;;;;;;;;;2090443;28;20040;-55
2023/11/18 02:09:52;;;;;;;6.53;4.60;;;;;;;;;;2090735;28;20032;-54
2023/11/18 02:10:57;;;;;;;7.35;4.18;;;;;;;;;;2091334;28;20469;-54
2023/11/18 02:12:05;;;;;;;6.88;4.47;;;;;;;;;;2091143;28;20045;-54
2023/11/18 02:13:20;;;;;;;11.23;5.00;;;;;;;;;;2082930;28;20040;-54
2023/11/18 02:14:22;;;;;;;7.00;4.95;;;;;;;;;;2084834;28;20030;-54
2023/11/18 02:15:23;;;;;;;7.78;5.20;;;;;;;;;;2082826;28;20037;-56
2023/11/18 02:16:24;;;;;;;7.65;4.97;;;;;;;;;;2073707;28;20524;-55
2023/11/18 02:17:25;;;;;;;6.82;4.85;;;;;;;;;;2074781;28;20072;-55
2023/11/18 02:18:26;;;;;;;7.75;5.15;;;;;;;;;;2082657;28;20037;-56
2023/11/18 02:19:28;;;;;;;6.80;4.45;;;;;;;;;;2098914;28;20028;-54
2023/11/18 02:20:30;;;;;;;6.65;4.90;;;;;;;;;;2091394;28;20396;-54
2023/11/18 02:21:33;;;;;;;6.70;4.78;;;;;;;;;;2091386;28;20067;-54
2023/11/18 02:22:34;;;;;;;7.30;5.00;;;;;;;;;;2090908;28;20473;-54
2023/11/18 02:23:35;;;;;;;7.30;5.35;;;;;;;;;;2074503;28;20038;-55
2023/11/18 02:24:40;;;;;;;6.80;4.97;;;;;;;;;;2074358;28;20034;-56
2023/11/18 02:25:47;;;;;;;8.45;5.88;;;;;;;;;;2091058;28;20028;-54
2023/11/18 02:26:50;;;;;;;10.88;5.70;;;;;;;;;;2091041;28;20051;-54
2023/11/18 02:27:50;;;;;;;7.82;5.57;;;;;;;;;;2090631;28;20040;-55
2023/11/18 02:28:53;;;;;;;7.63;5.40;;;;;;;;;;2090898;28;20021;-54
2023/11/18 02:29:54;;;;;;;9.05;6.32;;;;;;;;;;2090795;28;20029;-55
2023/11/18 02:30:56;;;;;;;9.95;6.43;;;;;;;;;;2082166;28;20053;-55
2023/11/18 02:32:05;;;;;;;9.70;5.20;;;;;;;;;;2074712;28;20037;-54
2023/11/18 02:33:11;;;;;;;8.98;6.03;;;;;;;;;;2075626;28;20045;-54
2023/11/18 02:34:15;;;;;;;8.93;6.13;;;;;;;;;;2083642;28;20493;-54
2023/11/18 02:35:26;;;;;;;8.18;5.85;;;;;;;;;;2090893;28;20044;-54
2023/11/18 02:36:35;;;;;;;9.48;6.03;;;;;;;;;;2090489;28;20037;-55
2023/11/18 02:37:39;;;;;;;10.80;5.68;;;;;;;;;;2090374;28;20048;-54
2023/11/18 02:38:42;;;;;;;9.30;6.40;;;;;;;;;;2090344;28;20500;-56
2023/11/18 02:39:43;;;;;;;8.70;6.35;;;;;;;;;;2082349;28;20446;-56
2023/11/18 02:40:44;;;;;;;9.20;7.00;;;;;;;;;;2082499;28;20038;-56
2023/11/18 02:41:46;;;;;;;9.10;6.40;;;;;;;;;;2090615;28;20044;-54
2023/11/18 02:42:47;;;;;;;10.32;6.70;;;;;;;;;;2090624;28;20033;-55
2023/11/18 02:43:48;;;;;;;14.02;6.00;;;;;;;;;;2090578;28;20096;-56
2023/11/18 02:44:49;;;;;;;9.38;6.90;;;;;;;;;;2082314;28;20041;-55
2023/11/18 02:45:51;;;;;;;10.18;7.15;;;;;;;;;;2090606;28;20041;-54
2023/11/18 02:46:51;;;;;;;10.05;7.05;;;;;;;;;;2074493;28;20038;-56
2023/11/18 02:47:57;;;;;;;9.07;6.00;;;;;;;;;;2082336;28;20064;-55
2023/11/18 02:48:57;;;;;;;9.02;6.60;;;;;;;;;;2090736;28;20036;-56
2023/11/18 02:50:05;;;;;;;9.13;6.25;;;;;;;;;;2090342;28;20059;-56
2023/11/18 02:51:07;;;;;;;10.05;7.05;;;;;;;;;;2091467;28;20041;-54
2023/11/18 02:52:09;;;;;;;9.73;6.32;;;;;;;;;;2091106;28;20041;-55
2023/11/18 02:53:10;;;;;;;10.20;7.32;;;;;;;;;;2091402;28;20449;-54
2023/11/18 02:54:11;;;;;;;10.52;7.28;;;;;;;;;;2089905;28;20041;-55
2023/11/18 02:55:11;;;;;;;11.77;6.57;;;;;;;;;;2089978;28;20037;-54
2023/11/18 02:56:12;;;;;;;10.82;7.25;;;;;;;;;;2090785;28;20033;-55
2023/11/18 02:57:14;;;;;;;11.95;7.53;;;;;;;;;;2090513;28;20385;-55
2023/11/18 02:58:14;;;;;;;9.93;7.25;;;;;;;;;;2091075;28;20052;-56
2023/11/18 02:59:16;;;;;;;11.75;8.15;;;;;;;;;;2091070;28;20480;-55
2023/11/18 03:00:18;;;;;;;10.80;7.15;;;;;;;;;;2090804;28;20073;-55
2023/11/18 03:01:19;;;;;;;11.73;7.78;;;;;;;;;;2091622;28;20072;-55
2023/11/18 03:02:21;;;;;;;9.45;6.72;;;;;;;;;;2090170;28;20044;-56
2023/11/18 03:03:21;;;;;;;11.02;7.90;;;;;;;;;;2082545;28;20041;-55
2023/11/18 03:04:23;;;;;;;10.02;7.15;;;;;;;;;;2090758;28;20045;-55
2023/11/18 03:05:26;;;;;;;10.27;6.50;;;;;;;;;;2090410;28;20041;-55
2023/11/18 03:06:27;;;;;;;11.85;7.95;;;;;;;;;;2090635;28;20048;-55
2023/11/18 03:07:28;;;;;;;11.43;7.90;;;;;;;;;;2090136;28;20428;-56
2023/11/18 03:08:29;;;;;;;10.35;7.00;;;;;;;;;;2091178;28;20453;-55
2023/11/18 03:09:30;;;;;;;10.85;7.78;;;;;;;;;;2090392;28;20487;-56
2023/11/18 03:10:33;;;;;;;12.18;7.93;;;;;;;;;;2081708;28;20069;-55
2023/11/18 03:11:34;;;;;;;10.73;6.63;;;;;;;;;;2074480;28;20052;-55
2023/11/18 03:12:34;;;;;;;11.25;7.63;;;;;;;;;;2090372;28;20078;-55
2023/11/18 03:13:35;;;;;;;11.60;7.45;;;;;;;;;;2090930;28;20508;-55
2023/11/18 03:14:37;;;;;;;12.82;7.85;;;;;;;;;;2090960;28;20055;-56
2023/11/18 03:15:37;;;;;;;9.77;7.35;;;;;;;;;;2090907;28;20489;-55
2023/11/18 03:16:39;;;;;;;11.20;7.40;;;;;;;;;;2090433;28;20037;-55
2023/11/18 03:17:40;;;;;;;13.07;7.78;;;;;;;;;;2090368;28;20041;-55
2023/11/18 03:18:41;;;;;;;13.00;8.45;;;;;;;;;;2090686;28;20579;-55
2023/11/18 03:19:42;;;;;;;11.48;7.20;;;;;;;;;;2090596;28;20041;-55
2023/11/18 03:20:43;;;;;;;9.45;6.47;;;;;;;;;;2089948;28;20555;-55
2023/11/18 03:21:43;;;;;;;9.93;6.70;;;;;;;;;;2091159;28;20381;-56
2023/11/18 03:22:44;;;;;;;11.55;8.30;;;;;;;;;;2090882;28;20052;-55
2023/11/18 03:23:45;;;;;;;12.00;8.32;;;;;;;;;;2091152;28;20036;-55
2023/11/18 03:24:46;;;;;;;11.45;7.95;;;;;;;;;;2090895;28;20037;-56
2023/11/18 03:25:47;;;;;;;12.15;8.10;;;;;;;;;;2090813;28;20480;-56
2023/11/18 03:26:49;;;;;;;12.48;8.25;;;;;;;;;;2090237;28;20072;-56
2023/11/18 03:27:49;;;;;;;13.10;8.27;;;;;;;;;;2082043;28;20036;-55
2023/11/18 03:28:50;;;;;;;11.73;7.20;;;;;;;;;;2081987;28;20033;-55
2023/11/18 03:29:51;;;;;;;11.60;8.45;;;;;;;;;;2090089;28;20409;-55
2023/11/18 03:30:51;;;;;;;9.52;7.72;;;;;;;;;;2090143;28;20044;-55
2023/11/18 03:31:52;;;;;;;11.02;7.90;;;;;;;;;;2090234;28;20053;-55
2023/11/18 03:32:53;;;;;;;11.65;7.88;;;;;;;;;;2090556;28;20037;-55
2023/11/18 03:33:54;;;;;;;11.82;8.35;;;;;;;;;;2090695;28;20495;-55
2023/11/18 03:34:54;;;;;;;13.10;8.38;;;;;;;;;;2089886;28;20037;-56
2023/11/18 03:35:55;;;;;;;11.20;8.05;;;;;;;;;;2098309;28;20060;-55
2023/11/18 03:36:57;;;;;;;11.07;7.75;;;;;;;;;;2107105;28;20507;-55
2023/11/18 03:37:57;;;;;;;13.25;8.77;;;;;;;;;;2090127;28;20096;-56
2023/11/18 03:38:58;;;;;;;13.48;8.80;;;;;;;;;;2081845;28;20041;-56
2023/11/18 03:39:59;;;;;;;13.02;8.68;;;;;;;;;;2090485;28;20041;-55
2023/11/18 03:40:59;;;;;;;12.50;8.65;;;;;;;;;;2090825;28;20397;-55
2023/11/18 03:42:00;;;;;;;12.60;8.55;;;;;;;;;;2090766;28;20043;-56
2023/11/18 03:43:01;;;;;;;12.95;9.15;;;;;;;;;;2090738;28;20029;-55
2023/11/18 03:44:02;;;;;;;13.20;8.50;;;;;;;;;;2090911;28;20028;-56
2023/11/18 03:45:03;;;;;;;11.13;7.38;;;;;;;;;;2090743;28;20048;-55
2023/11/18 03:46:04;;;;;;;12.68;8.52;;;;;;;;;;2090712;28;20045;-56
2023/11/18 03:47:06;;;;;;;12.20;8.38;;;;;;;;;;2090691;28;20044;-55
2023/11/18 03:48:07;;;;;;;12.60;8.60;;;;;;;;;;2090704;28;20055;-55
2023/11/18 03:49:08;;;;;;;11.95;8.68;;;;;;;;;;2090055;28;20059;-55
2023/11/18 03:50:09;;;;;;;11.70;8.40;;;;;;;;;;2090077;28;20045;-56
2023/11/18 03:51:09;;;;;;;13.38;8.60;;;;;;;;;;2090032;28;20021;-55
2023/11/18 03:52:10;;;;;;;12.05;8.60;;;;;;;;;;2090128;28;20044;-55
2023/11/18 03:53:11;;;;;;;17.35;9.48;;;;;;;;;;2090985;28;20389;-55
2023/11/18 03:54:12;;;;;;;12.30;8.77;;;;;;;;;;2090462;28;20037;-55
2023/11/18 03:55:13;;;;;;;11.68;8.20;;;;;;;;;;2089959;28;20037;-55
2023/11/18 03:56:18;;;;;;;11.55;7.95;;;;;;;;;;2090665;28;20061;-56
2023/11/18 03:57:19;;;;;;;13.77;8.70;;;;;;;;;;2090932;28;20039;-55
2023/11/18 03:58:19;;;;;;;11.88;8.57;;;;;;;;;;2090672;28;20056;-55
2023/11/18 03:59:20;;;;;;;13.18;9.52;;;;;;;;;;2090577;28;20488;-56
2023/11/18 04:00:21;;;;;;;13.40;9.02;;;;;;;;;;2090336;28;20056;-55
2023/11/18 04:01:22;;;;;;;10.80;7.82;;;;;;;;;;2090594;28;20048;-56
2023/11/18 04:02:23;;;;;;;13.95;8.40;;;;;;;;;;2089755;28;20059;-55
2023/11/18 04:03:24;;;;;;;14.55;9.13;;;;;;;;;;2090182;28;20102;-56
2023/11/18 04:04:24;;;;;;;14.52;9.48;;;;;;;;;;2089991;28;20056;-55
2023/11/18 04:05:25;;;;;;;13.25;9.40;;;;;;;;;;2089635;28;20048;-56
2023/11/18 04:06:26;;;;;;;14.70;10.35;;;;;;;;;;2090404;28;20044;-56
2023/11/18 04:07:28;;;;;;;11.80;7.38;;;;;;;;;;2090622;28;20388;-55
2023/11/18 04:08:29;;;;;;;11.70;7.72;;;;;;;;;;2090737;28;20048;-55
2023/11/18 04:09:30;;;;;;;12.80;9.30;;;;;;;;;;2089253;28;20041;-55
2023/11/18 04:10:31;;;;;;;13.18;7.85;;;;;;;;;;2081699;28;20440;-56
2023/11/18 04:11:32;;;;;;;11.38;8.32;;;;;;;;;;2090007;28;20056;-55
2023/11/18 04:12:33;;;;;;;12.52;9.52;;;;;;;;;;2090429;28;20049;-55
2023/11/18 04:13:34;;;;;;;11.80;8.93;;;;;;;;;;2089894;28;20036;-55
2023/11/18 04:14:34;;;;;;;11.43;8.13;;;;;;;;;;2089908;28;20049;-55
2023/11/18 04:15:35;;;;;;;12.55;8.55;;;;;;;;;;2090473;28;20404;-55
2023/11/18 04:16:37;;;;;;;11.77;8.52;;;;;;;;;;2090738;28;20468;-55
2023/11/18 04:17:38;;;;;;;11.85;8.30;;;;;;;;;;2090364;28;20488;-55
2023/11/18 04:18:42;;;;;;;11.85;8.10;;;;;;;;;;2090395;28;20045;-56
2023/11/18 04:19:43;;;;;;;11.95;8.63;;;;;;;;;;2089308;28;20045;-56
2023/11/18 04:20:44;;;;;;;11.63;7.78;;;;;;;;;;2089850;28;20049;-56
2023/11/18 04:21:48;;;;;;;11.80;8.10;;;;;;;;;;2090712;28;20075;-55
2023/11/18 04:22:49;;;;;;;10.60;7.22;;;;;;;;;;2090340;28;20045;-56
2023/11/18 04:23:49;;;;;;;11.48;7.32;;;;;;;;;;2089808;28;20041;-55
2023/11/18 04:24:50;;;;;;;10.75;7.57;;;;;;;;;;2089864;28;20041;-56
2023/11/18 04:25:51;;;;;;;12.45;8.75;;;;;;;;;;2090733;28;20056;-55
2023/11/18 04:26:52;;;;;;;11.05;6.90;;;;;;;;;;2090366;28;20487;-56
2023/11/18 04:27:52;;;;;;;10.00;7.07;;;;;;;;;;2090538;28;20025;-55
2023/11/18 04:28:53;;;;;;;9.50;6.95;;;;;;;;;;2090368;28;20055;-55
2023/11/18 04:29:54;;;;;;;11.70;6.75;;;;;;;;;;2081379;28;20036;-55
2023/11/18 04:30:55;;;;;;;10.98;7.40;;;;;;;;;;2081580;28;20044;-55
2023/11/18 04:31:56;;;;;;;11.88;7.50;;;;;;;;;;2089904;28;20107;-55
2023/11/18 04:32:57;;;;;;;10.70;7.35;;;;;;;;;;2090138;28;20044;-55
2023/11/18 04:33:58;;;;;;;10.27;6.88;;;;;;;;;;2090479;28;20029;-55
2023/11/18 04:34:59;;;;;;;11.93;7.68;;;;;;;;;;2090749;28;20047;-56
2023/11/18 04:36:01;;;;;;;10.38;6.93;;;;;;;;;;2089734;28;20044;-55
2023/11/18 04:37:02;;;;;;;10.90;6.28;;;;;;;;;;2089778;28;20029;-55
2023/11/18 04:38:03;;;;;;;9.93;7.03;;;;;;;;;;2090301;28;20045;-56
2023/11/18 04:39:04;;;;;;;9.82;6.50;;;;;;;;;;2090266;28;20052;-55
2023/11/18 04:40:09;;;;;;;10.70;7.47;;;;;;;;;;2090351;28;20068;-56
2023/11/18 04:41:15;;;;;;;12.38;7.50;;;;;;;;;;2089727;28;20036;-56
2023/11/18 04:42:15;;;;;;;11.57;7.07;;;;;;;;;;2090375;28;20056;-56
2023/11/18 04:43:16;;;;;;;9.52;7.00;;;;;;;;;;2089630;28;20492;-56
2023/11/18 04:44:17;;;;;;;10.80;7.00;;;;;;;;;;2089662;28;20045;-55
2023/11/18 04:45:18;;;;;;;10.90;6.57;;;;;;;;;;2090325;28;20080;-55
2023/11/18 04:46:19;;;;;;;11.43;7.75;;;;;;;;;;2090347;28;20168;-55
2023/11/18 04:47:20;;;;;;;10.25;6.97;;;;;;;;;;2089820;28;20084;-55
2023/11/18 04:48:21;;;;;;;10.85;7.60;;;;;;;;;;2090050;28;20044;-56
2023/11/18 04:49:22;;;;;;;12.32;7.60;;;;;;;;;;2090135;28;20056;-55
2023/11/18 04:50:22;;;;;;;11.68;7.90;;;;;;;;;;2090898;28;20049;-55
2023/11/18 04:51:23;;;;;;;11.40;7.72;;;;;;;;;;2090544;28;20048;-56
2023/11/18 04:52:24;;;;;;;11.00;7.05;;;;;;;;;;2090168;28;20398;-56
2023/11/18 04:53:25;;;;;;;10.15;6.90;;;;;;;;;;2090566;28;20056;-55
2023/11/18 04:54:26;;;;;;;13.55;8.63;;;;;;;;;;2090515;28;20036;-55
2023/11/18 04:55:26;;;;;;;12.07;6.95;;;;;;;;;;2090509;28;20491;-55
2023/11/18 04:56:27;;;;;;;11.40;7.05;;;;;;;;;;2090211;28;20040;-55
2023/11/18 04:57:28;;;;;;;11.82;8.10;;;;;;;;;;2090174;28;20059;-55
2023/11/18 04:58:29;;;;;;;10.98;7.95;;;;;;;;;;2090139;28;20056;-55
2023/11/18 04:59:30;;;;;;;10.80;7.53;;;;;;;;;;2090191;28;20033;-55
2023/11/18 05:00:32;;;;;;;11.73;8.40;;;;;;;;;;2089873;28;20056;-55
2023/11/18 05:01:33;;;;;;;12.43;8.35;;;;;;;;;;2090242;28;20041;-55
2023/11/18 05:02:34;;;;;;;14.13;7.28;;;;;;;;;;2090890;28;20481;-55
2023/11/18 05:03:35;;;;;;;11.82;7.50;;;;;;;;;;2090193;28;20041;-55
2023/11/18 05:04:35;;;;;;;12.02;7.53;;;;;;;;;;2090155;28;20041;-55
2023/11/18 05:05:37;;;;;;;11.20;7.22;;;;;;;;;;2090175;28;20396;-56
2023/11/18 05:06:38;;;;;;;13.35;8.07;;;;;;;;;;2090560;28;20037;-56
2023/11/18 05:07:39;;;;;;;11.55;7.47;;;;;;;;;;2089814;28;20484;-55
2023/11/18 05:08:39;;;;;;;12.25;8.40;;;;;;;;;;2090776;28;20040;-55
2023/11/18 05:09:40;;;;;;;12.35;8.25;;;;;;;;;;2090531;28;20041;-56
2023/11/18 05:10:41;;;;;;;9.70;6.28;;;;;;;;;;2089979;28;20031;-56
2023/11/18 05:11:42;;;;;;;12.70;8.52;;;;;;;;;;2088894;28;20033;-56
2023/11/18 05:12:43;;;;;;;12.25;7.40;;;;;;;;;;2088628;28;20393;-55
2023/11/18 05:13:44;;;;;;;10.30;6.78;;;;;;;;;;2089724;28;20033;-55
2023/11/18 05:14:45;;;;;;;10.25;6.60;;;;;;;;;;2090012;28;20036;-55
2023/11/18 05:15:46;;;;;;;10.80;7.85;;;;;;;;;;2089855;28;20056;-55
2023/11/18 05:16:46;;;;;;;10.77;6.95;;;;;;;;;;2089880;28;20037;-55
2023/11/18 05:17:47;;;;;;;12.27;8.05;;;;;;;;;;2091785;28;20033;-55
2023/11/18 05:18:48;;;;;;;10.80;7.32;;;;;;;;;;2092629;28;20034;-56
2023/11/18 05:19:48;;;;;;;11.55;6.88;;;;;;;;;;2091814;28;20029;-55
2023/11/18 05:20:50;;;;;;;9.38;6.38;;;;;;;;;;2092588;28;20041;-55
2023/11/18 05:21:50;;;;;;;10.77;6.97;;;;;;;;;;2091841;28;20501;-55
2023/11/18 05:22:51;;;;;;;12.30;7.45;;;;;;;;;;2092137;28;20056;-55
2023/11/18 05:23:52;;;;;;;10.48;7.15;;;;;;;;;;2091845;28;20036;-56
2023/11/18 05:24:53;;;;;;;10.40;7.10;;;;;;;;;;2091742;28;20041;-55
2023/11/18 05:25:55;;;;;;;9.75;7.32;;;;;;;;;;2091807;28;20041;-55
2023/11/18 05:26:55;;;;;;;11.50;7.13;;;;;;;;;;2091786;28;20037;-55
2023/11/18 05:27:56;;;;;;;10.13;7.00;;;;;;;;;;2092468;28;20127;-55
2023/11/18 05:28:57;;;;;;;9.20;5.40;;;;;;;;;;2091675;28;20098;-55
2023/11/18 05:29:59;;;;;;;10.45;7.03;;;;;;;;;;2091577;28;20048;-55
2023/11/18 05:31:02;;;;;;;9.88;6.10;;;;;;;;;;2091792;28;20037;-55
2023/11/18 05:32:02;;;;;;;13.32;6.43;;;;;;;;;;2091106;28;20033;-55
2023/11/18 05:33:05;;;;;;;10.60;6.63;;;;;;;;;;2091020;28;20040;-56
2023/11/18 05:34:06;;;;;;;10.02;6.40;;;;;;;;;;2091757;28;20048;-55
2023/11/18 05:35:11;;;;;;;10.57;7.13;;;;;;;;;;2091716;28;20048;-56
2023/11/18 05:36:11;;;;;;;10.20;7.25;;;;;;;;;;2091667;28;20032;-55
2023/11/18 05:37:12;;;;;;;10.50;6.65;;;;;;;;;;2092071;28;20481;-55
2023/11/18 05:38:16;;;;;;;11.75;7.55;;;;;;;;;;2092053;28;20021;-56
2023/11/18 05:39:17;;;;;;;13.18;7.45;;;;;;;;;;2091844;28;20049;-55
2023/11/18 05:40:18;;;;;;;11.35;7.10;;;;;;;;;;2091684;28;20453;-55
2023/11/18 05:41:27;;;;;;;11.20;7.57;;;;;;;;;;2091996;28;20040;-56
2023/11/18 05:42:28;;;;;;;10.02;7.32;;;;;;;;;;2092227;28;20056;-55
2023/11/18 05:43:35;;;;;;;10.55;7.00;;;;;;;;;;2091950;28;20068;-55
2023/11/18 05:44:39;;;;;;;9.23;6.50;;;;;;;;;;2091893;28;20056;-56
2023/11/18 05:45:56;;;;;;;10.63;7.03;;;;;;;;;;2091654;28;20048;-55
2023/11/18 05:46:59;;;;;;;10.23;6.43;;;;;;;;;;2091667;28;20043;-56
2023/11/18 05:48:00;;;;;;;10.13;6.22;;;;;;;;;;2091750;28;20396;-55
2023/11/18 05:49:07;;;;;;;9.52;6.68;;;;;;;;;;2092095;28;20041;-55
2023/11/18 05:50:09;;;;;;;10.57;7.50;;;;;;;;;;2091657;28;20037;-56
2023/11/18 05:51:10;;;;;;;9.15;6.95;;;;;;;;;;2091617;28;20048;-54
2023/11/18 05:52:11;;;;;;;11.23;6.03;;;;;;;;;;2091658;28;20476;-56
2023/11/18 05:53:12;;;;;;;12.48;6.70;;;;;;;;;;2091508;28;20041;-55
2023/11/18 05:54:13;;;;;;;10.60;6.32;;;;;;;;;;2092000;28;20029;-55
2023/11/18 05:55:13;;;;;;;11.50;7.10;;;;;;;;;;2091649;28;20045;-55
2023/11/18 05:56:16;;;;;;;11.57;6.88;;;;;;;;;;2091781;28;20074;-55
2023/11/18 05:57:17;;;;;;;10.57;6.78;;;;;;;;;;2091520;28;20041;-55
2023/11/18 05:58:18;;;;;;;11.15;7.32;;;;;;;;;;2091030;28;20432;-56
2023/11/18 05:59:18;;;;;;;11.35;7.82;;;;;;;;;;2091562;28;20045;-55
2023/11/18 06:00:21;;;;;;;10.40;6.10;;;;;;;;;;2091283;28;20525;-55
2023/11/18 06:01:21;;;;;;;9.43;6.50;;;;;;;;;;2091649;28;20045;-55
2023/11/18 06:02:24;;;;;;;10.15;6.78;;;;;;;;;;2091526;28;20049;-54
2023/11/18 06:03:25;;;;;;;9.52;6.03;;;;;;;;;;2091481;28;20055;-55
2023/11/18 06:04:26;;;;;;;10.40;6.43;;;;;;;;;;2091447;28;20448;-59
2023/11/18 06:05:29;;;;;;;11.73;7.60;;;;;;;;;;2091744;28;20499;-55